createdAt,value
2023-01-01T00:00:28.390Z,15.10
2023-01-01T00:02:56.371Z,15.10
2023-01-01T00:05:23.086Z,15.10
2023-01-01T00:07:49.822Z,15.10
2023-01-01T00:10:28.819Z,15.10
2023-01-01T00:12:57.209Z,15.10
2023-01-01T00:15:24.857Z,15.10
2023-01-01T00:17:51.567Z,15.10
2023-01-01T00:20:18.687Z,15.10
2023-01-01T00:22:54.929Z,15.10
2023-01-01T00:25:22.757Z,15.10
2023-01-01T00:27:49.720Z,15.10
2023-01-01T00:30:16.532Z,15.10
2023-01-01T00:32:43.373Z,15.10
2023-01-01T00:35:22.067Z,15.10
2023-01-01T00:37:48.779Z,15.10
2023-01-01T00:40:15.542Z,15.10
2023-01-01T00:42:42.241Z,15.10
2023-01-01T00:45:13.128Z,15.10
2023-01-01T00:47:42.377Z,15.10
2023-01-01T00:50:09.659Z,15.10
2023-01-01T00:52:36.403Z,15.10
2023-01-01T00:55:03.285Z,15.10
2023-01-01T00:57:30.037Z,15.10
2023-01-01T00:59:56.994Z,15.10
2023-01-01T01:02:23.898Z,15.10
2023-01-01T01:04:50.836Z,15.10
2023-01-01T01:07:17.514Z,15.10
2023-01-01T01:09:44.290Z,15.10
2023-01-01T01:12:18.564Z,15.10
2023-01-01T01:14:46.735Z,15.10
2023-01-01T01:17:13.525Z,15.10
2023-01-01T01:19:40.272Z,15.10
2023-01-01T01:22:06.945Z,15.10
2023-01-01T01:24:33.676Z,15.10
2023-01-01T01:27:00.411Z,15.10
2023-01-01T01:29:27.115Z,15.10
2023-01-01T01:31:53.810Z,15.10
2023-01-01T01:34:27.204Z,15.10
2023-01-01T01:36:54.860Z,15.10
2023-01-01T01:39:22.332Z,15.10
2023-01-01T01:41:49.024Z,15.10
2023-01-01T01:44:49.781Z,15.10
2023-01-01T01:47:25.570Z,15.10
2023-01-01T01:50:15.761Z,15.10
2023-01-01T01:53:08.650Z,15.10
2023-01-01T01:55:43.667Z,15.10
2023-01-01T01:58:13.240Z,15.10
2023-01-01T02:00:40.053Z,15.10
2023-01-01T02:03:14.130Z,15.10
2023-01-01T02:05:41.752Z,15.10
2023-01-01T02:08:09.832Z,15.10
2023-01-01T02:10:37.079Z,15.10
2023-01-01T02:13:03.853Z,15.10
2023-01-01T02:15:37.353Z,15.10
2023-01-01T02:18:11.402Z,15.00
2023-01-01T02:21:02.421Z,15.10
2023-01-01T02:23:36.098Z,15.00
2023-01-01T02:26:26.133Z,15.10
2023-01-01T02:29:01.042Z,15.10
2023-01-01T02:31:31.915Z,15.10
2023-01-01T02:34:03.939Z,15.00
2023-01-01T02:36:33.054Z,15.00
2023-01-01T02:39:03.051Z,15.00
2023-01-01T02:41:44.105Z,15.00
2023-01-01T02:44:12.042Z,15.00
2023-01-01T02:46:38.793Z,15.10
2023-01-01T02:49:10.279Z,15.00
2023-01-01T02:52:25.376Z,15.00
2023-01-01T02:55:07.459Z,15.00
2023-01-01T02:57:45.996Z,15.00
2023-01-01T03:00:31.625Z,15.00
2023-01-01T03:03:14.235Z,15.00
2023-01-01T03:06:34.233Z,15.00
2023-01-01T03:09:00.934Z,15.00
2023-01-01T03:11:51.550Z,15.00
2023-01-01T03:14:29.521Z,15.00
2023-01-01T03:17:21.877Z,15.00
2023-01-01T03:19:49.715Z,15.00
2023-01-01T03:22:18.701Z,15.00
2023-01-01T03:24:47.320Z,15.00
2023-01-01T03:27:31.483Z,15.00
2023-01-01T03:30:03.934Z,15.00
2023-01-01T03:32:57.899Z,15.00
2023-01-01T03:35:25.891Z,15.00
2023-01-01T03:37:55.946Z,15.00
2023-01-01T03:40:24.058Z,15.00
2023-01-01T03:42:54.979Z,15.00
2023-01-01T03:45:26.816Z,15.00
2023-01-01T03:47:54.432Z,15.00
2023-01-01T03:50:28.405Z,15.00
2023-01-01T03:53:09.982Z,15.00
2023-01-01T03:55:49.972Z,15.00
2023-01-01T03:58:30.703Z,15.00
2023-01-01T04:01:06.354Z,15.00
2023-01-01T04:03:35.429Z,15.00
2023-01-01T04:06:03.139Z,15.00
2023-01-01T04:08:33.425Z,15.00
2023-01-01T04:11:24.243Z,15.00
2023-01-01T04:13:50.975Z,15.00
2023-01-01T04:16:17.689Z,15.00
2023-01-01T04:18:44.452Z,15.00
2023-01-01T04:21:12.444Z,15.00
2023-01-01T04:23:39.163Z,15.00
2023-01-01T04:26:06.021Z,15.00
2023-01-01T04:28:32.699Z,15.00
2023-01-01T04:31:02.745Z,15.00
2023-01-01T04:33:29.604Z,15.00
2023-01-01T04:35:56.300Z,15.00
2023-01-01T04:38:22.970Z,15.00
2023-01-01T04:41:00.162Z,15.00
2023-01-01T04:43:27.019Z,15.00
2023-01-01T04:45:58.694Z,15.00
2023-01-01T04:48:26.268Z,15.00
2023-01-01T04:51:04.511Z,15.00
2023-01-01T04:53:34.095Z,15.00
2023-01-01T04:56:09.092Z,15.00
2023-01-01T04:58:37.531Z,15.00
2023-01-01T05:01:04.771Z,15.00
2023-01-01T05:03:32.209Z,15.00
2023-01-01T05:06:03.780Z,15.00
2023-01-01T05:08:32.365Z,15.00
2023-01-01T05:11:04.161Z,15.00
2023-01-01T05:13:37.819Z,15.00
2023-01-01T05:16:09.658Z,15.00
2023-01-01T05:18:36.850Z,15.00
2023-01-01T05:21:15.022Z,15.00
2023-01-01T05:23:42.254Z,15.00
2023-01-01T05:26:14.814Z,15.00
2023-01-01T05:28:42.444Z,15.00
2023-01-01T05:31:19.343Z,15.00
2023-01-01T05:33:46.933Z,15.00
2023-01-01T05:36:19.906Z,15.00
2023-01-01T05:38:47.100Z,15.00
2023-01-01T05:41:15.936Z,15.00
2023-01-01T05:43:43.267Z,15.00
2023-01-01T05:46:15.626Z,15.00
2023-01-01T05:48:43.307Z,15.00
2023-01-01T05:51:18.597Z,15.00
2023-01-01T05:53:45.657Z,14.90
2023-01-01T05:56:13.795Z,14.90
2023-01-01T05:58:41.024Z,14.90
2023-01-01T06:01:17.166Z,14.90
2023-01-01T06:03:44.904Z,14.90
2023-01-01T06:06:17.135Z,14.90
2023-01-01T06:08:50.085Z,15.00
2023-01-01T06:11:16.829Z,14.90
2023-01-01T06:13:43.659Z,14.90
2023-01-01T06:16:10.660Z,14.90
2023-01-01T06:18:37.690Z,14.90
2023-01-01T06:21:11.613Z,14.90
2023-01-01T06:23:38.509Z,14.90
2023-01-01T06:26:06.230Z,15.00
2023-01-01T06:28:33.145Z,14.90
2023-01-01T06:31:01.661Z,14.90
2023-01-01T06:33:29.366Z,15.00
2023-01-01T06:35:56.779Z,14.90
2023-01-01T06:38:23.471Z,14.90
2023-01-01T06:41:04.732Z,14.90
2023-01-01T06:43:33.890Z,14.90
2023-01-01T06:46:04.803Z,14.90
2023-01-01T06:48:33.571Z,14.90
2023-01-01T06:51:06.476Z,14.90
2023-01-01T06:53:33.293Z,14.90
2023-01-01T06:56:00.097Z,15.00
2023-01-01T06:58:26.813Z,15.00
2023-01-01T07:00:53.521Z,14.90
2023-01-01T07:03:20.338Z,15.00
2023-01-01T07:05:47.067Z,14.90
2023-01-01T07:08:13.749Z,14.90
2023-01-01T07:10:40.570Z,14.90
2023-01-01T07:13:07.268Z,14.90
2023-01-01T07:15:34.070Z,14.90
2023-01-01T07:18:00.854Z,14.90
2023-01-01T07:20:27.504Z,14.90
2023-01-01T07:22:54.405Z,14.90
2023-01-01T07:25:22.345Z,14.90
2023-01-01T07:27:49.019Z,14.90
2023-01-01T07:30:15.737Z,14.90
2023-01-01T07:32:42.432Z,14.90
2023-01-01T07:35:09.997Z,14.90
2023-01-01T07:37:36.776Z,14.90
2023-01-01T07:40:03.921Z,14.90
2023-01-01T07:42:30.665Z,14.90
2023-01-01T07:44:58.205Z,14.90
2023-01-01T07:47:26.418Z,14.90
2023-01-01T07:49:53.372Z,14.90
2023-01-01T07:52:20.515Z,14.90
2023-01-01T07:54:47.344Z,14.90
2023-01-01T07:57:14.075Z,14.90
2023-01-01T07:59:40.794Z,14.90
2023-01-01T08:02:07.644Z,14.90
2023-01-01T08:04:34.464Z,14.90
2023-01-01T08:07:01.149Z,14.90
2023-01-01T08:09:27.878Z,14.90
2023-01-01T08:11:54.611Z,14.90
2023-01-01T08:14:21.303Z,14.90
2023-01-01T08:16:47.976Z,14.90
2023-01-01T08:19:14.678Z,14.90
2023-01-01T08:21:41.395Z,14.90
2023-01-01T08:24:08.278Z,14.90
2023-01-01T08:26:36.627Z,14.90
2023-01-01T08:29:05.891Z,14.90
2023-01-01T08:31:33.508Z,14.90
2023-01-01T08:34:00.198Z,14.90
2023-01-01T08:36:27.024Z,14.90
2023-01-01T08:38:53.817Z,14.90
2023-01-01T08:41:21.717Z,14.90
2023-01-01T08:43:48.501Z,14.90
2023-01-01T08:46:15.239Z,14.80
2023-01-01T08:48:42.410Z,14.90
2023-01-01T08:51:10.337Z,14.80
2023-01-01T08:53:37.266Z,14.90
2023-01-01T08:56:09.086Z,14.90
2023-01-01T08:58:37.150Z,14.80
2023-01-01T09:01:04.694Z,14.80
2023-01-01T09:03:31.558Z,14.80
2023-01-01T09:05:58.983Z,14.80
2023-01-01T09:08:26.038Z,14.80
2023-01-01T09:10:57.370Z,14.80
2023-01-01T09:13:24.147Z,14.80
2023-01-01T09:15:51.026Z,14.90
2023-01-01T09:18:18.161Z,14.80
2023-01-01T09:20:44.890Z,14.80
2023-01-01T09:23:12.692Z,14.80
2023-01-01T09:25:39.865Z,14.80
2023-01-01T09:28:12.972Z,14.80
2023-01-01T09:30:40.532Z,14.80
2023-01-01T09:33:07.304Z,14.80
2023-01-01T09:35:33.964Z,14.80
2023-01-01T09:38:00.679Z,14.80
2023-01-01T09:41:03.322Z,14.80
2023-01-01T09:43:40.248Z,14.80
2023-01-01T09:46:09.015Z,14.80
2023-01-01T09:48:41.362Z,14.80
2023-01-01T09:51:15.623Z,14.80
2023-01-01T09:53:58.018Z,14.80
2023-01-01T09:56:27.695Z,14.80
2023-01-01T09:58:56.956Z,14.90
2023-01-01T10:01:45.037Z,14.90
2023-01-01T10:04:24.035Z,14.90
2023-01-01T10:06:58.378Z,14.90
2023-01-01T10:09:51.356Z,14.90
2023-01-01T10:12:40.916Z,14.90
2023-01-01T10:15:36.608Z,14.90
2023-01-01T10:18:16.591Z,14.90
2023-01-01T10:20:47.883Z,14.90
2023-01-01T10:23:24.303Z,14.90
2023-01-01T10:25:51.079Z,14.90
2023-01-01T10:28:29.659Z,14.90
2023-01-01T10:31:19.547Z,14.90
2023-01-01T10:33:47.960Z,14.90
2023-01-01T10:36:19.364Z,14.90
2023-01-01T10:38:48.714Z,14.90
2023-01-01T10:41:19.791Z,14.90
2023-01-01T10:43:48.256Z,14.90
2023-01-01T10:46:26.005Z,14.90
2023-01-01T10:49:11.985Z,14.90
2023-01-01T10:51:59.376Z,14.90
2023-01-01T10:54:37.354Z,14.90
2023-01-01T10:57:22.400Z,14.90
2023-01-01T10:59:54.611Z,15.00
2023-01-01T11:02:28.372Z,14.90
2023-01-01T11:05:22.289Z,14.90
2023-01-01T11:07:50.077Z,15.00
2023-01-01T11:10:20.387Z,14.90
2023-01-01T11:13:04.750Z,14.90
2023-01-01T11:15:41.189Z,15.00
2023-01-01T11:18:13.987Z,15.00
2023-01-01T11:20:41.760Z,15.00
2023-01-01T11:23:36.157Z,15.00
2023-01-01T11:26:17.159Z,15.00
2023-01-01T11:29:31.766Z,15.00
2023-01-01T11:32:00.937Z,15.00
2023-01-01T11:34:29.983Z,15.00
2023-01-01T11:37:14.690Z,15.00
2023-01-01T11:39:50.974Z,15.00
2023-01-01T11:42:24.043Z,15.00
2023-01-01T11:45:04.149Z,15.00
2023-01-01T11:47:41.608Z,15.00
2023-01-01T11:50:19.493Z,15.00
2023-01-01T11:52:58.520Z,15.00
2023-01-01T11:55:32.086Z,15.00
2023-01-01T11:58:19.359Z,15.00
2023-01-01T12:00:49.260Z,15.00
2023-01-01T12:03:33.938Z,15.00
2023-01-01T12:06:23.050Z,15.00
2023-01-01T12:09:20.275Z,15.00
2023-01-01T12:12:00.131Z,15.00
2023-01-01T12:14:33.196Z,15.00
2023-01-01T12:17:11.579Z,15.00
2023-01-01T12:20:06.497Z,15.00
2023-01-01T12:22:33.375Z,15.00
2023-01-01T12:25:00.873Z,15.00
2023-01-01T12:27:52.337Z,15.00
2023-01-01T12:30:50.941Z,15.00
2023-01-01T12:33:20.799Z,15.00
2023-01-01T12:35:57.271Z,15.00
2023-01-01T12:38:53.666Z,15.00
2023-01-01T12:41:36.283Z,15.00
2023-01-01T12:44:30.235Z,15.00
2023-01-01T12:47:06.611Z,15.00
2023-01-01T12:49:48.043Z,15.00
2023-01-01T12:52:17.627Z,15.00
2023-01-01T12:55:19.727Z,15.00
2023-01-01T12:58:16.698Z,15.00
2023-01-01T13:00:51.987Z,15.00
2023-01-01T13:03:26.215Z,15.00
2023-01-01T13:05:56.603Z,15.00
2023-01-01T13:08:23.406Z,15.00
2023-01-01T13:10:54.722Z,15.00
2023-01-01T13:13:21.775Z,15.00
2023-01-01T13:15:51.897Z,15.00
2023-01-01T13:18:35.601Z,15.00
2023-01-01T13:21:26.362Z,15.00
2023-01-01T13:23:54.703Z,15.00
2023-01-01T13:26:21.614Z,15.00
2023-01-01T13:28:57.261Z,15.00
2023-01-01T13:31:42.060Z,15.00
2023-01-01T13:34:31.375Z,15.00
2023-01-01T13:37:10.508Z,15.00
2023-01-01T13:40:05.495Z,15.00
2023-01-01T13:43:06.485Z,15.00
2023-01-01T13:46:11.229Z,15.00
2023-01-01T13:48:59.294Z,15.00
2023-01-01T13:54:57.807Z,15.00
2023-01-01T13:58:01.888Z,15.00
2023-01-01T14:00:35.891Z,15.00
2023-01-01T14:03:06.849Z,15.00
2023-01-01T14:05:37.351Z,15.00
2023-01-01T14:08:09.941Z,15.00
2023-01-01T14:10:39.806Z,14.90
2023-01-01T14:13:06.504Z,14.90
2023-01-01T14:15:35.728Z,14.90
2023-01-01T14:18:15.777Z,15.00
2023-01-01T14:20:47.826Z,15.00
2023-01-01T14:23:34.331Z,15.00
2023-01-01T14:26:03.934Z,15.00
2023-01-01T14:28:34.993Z,15.00
2023-01-01T14:31:10.837Z,15.00
2023-01-01T14:33:38.716Z,14.90
2023-01-01T14:36:15.599Z,15.00
2023-01-01T14:38:45.420Z,15.00
2023-01-01T14:41:16.249Z,14.90
2023-01-01T14:43:46.207Z,14.90
2023-01-01T14:46:19.416Z,15.00
2023-01-01T14:48:47.153Z,15.00
2023-01-01T14:51:18.568Z,15.00
2023-01-01T14:53:47.901Z,14.90
2023-01-01T14:56:31.075Z,14.90
2023-01-01T14:59:30.543Z,14.90
2023-01-01T15:02:13.401Z,14.90
2023-01-01T15:04:40.573Z,14.90
2023-01-01T15:07:20.677Z,15.00
2023-01-01T15:09:47.686Z,15.10
2023-01-01T15:12:17.916Z,15.10
2023-01-01T15:14:47.952Z,15.20
2023-01-01T15:17:16.594Z,15.30
2023-01-01T15:19:45.975Z,15.40
2023-01-01T15:22:34.662Z,15.50
2023-01-01T15:25:02.641Z,15.60
2023-01-01T15:27:34.992Z,15.70
2023-01-01T15:30:07.060Z,15.80
2023-01-01T15:32:38.580Z,15.90
2023-01-01T15:35:17.878Z,16.00
2023-01-01T15:37:54.995Z,16.10
2023-01-01T15:40:24.716Z,16.20
2023-01-01T15:42:57.495Z,16.30
2023-01-01T15:45:35.181Z,16.40
2023-01-01T15:48:34.914Z,16.50
2023-01-01T15:51:12.320Z,16.60
2023-01-01T15:53:49.394Z,16.70
2023-01-01T15:56:16.788Z,16.80
2023-01-01T15:58:53.925Z,16.90
2023-01-01T16:01:24.060Z,17.00
2023-01-01T16:03:54.063Z,17.10
2023-01-01T16:06:22.070Z,17.10
2023-01-01T16:08:48.846Z,17.10
2023-01-01T16:11:15.732Z,17.20
2023-01-01T16:13:42.518Z,17.20
2023-01-01T16:16:39.441Z,17.30
2023-01-01T16:19:11.793Z,17.30
2023-01-01T16:21:38.524Z,17.30
2023-01-01T16:24:06.679Z,17.30
2023-01-01T16:26:33.351Z,17.30
2023-01-01T16:29:00.037Z,17.40
2023-01-01T16:31:30.188Z,17.30
2023-01-01T16:34:00.284Z,17.30
2023-01-01T16:36:28.957Z,17.30
2023-01-01T16:38:56.699Z,17.30
2023-01-01T16:41:25.632Z,17.30
2023-01-01T16:43:52.423Z,17.30
2023-01-01T16:46:19.213Z,17.30
2023-01-01T16:48:45.979Z,17.30
2023-01-01T16:51:22.668Z,17.30
2023-01-01T16:53:49.496Z,17.20
2023-01-01T16:56:16.497Z,17.20
2023-01-01T16:58:54.011Z,17.20
2023-01-01T17:01:23.556Z,17.20
2023-01-01T17:03:50.969Z,17.20
2023-01-01T17:06:18.738Z,17.10
2023-01-01T17:08:45.422Z,17.10
2023-01-01T17:11:15.739Z,17.10
2023-01-01T17:13:44.096Z,17.10
2023-01-01T17:16:12.394Z,17.10
2023-01-01T17:19:13.244Z,17.10
2023-01-01T17:21:26.061Z,17.00
2023-01-01T17:23:53.649Z,17.00
2023-01-01T17:26:22.701Z,17.00
2023-01-01T17:28:56.539Z,17.00
2023-01-01T17:31:28.446Z,16.90
2023-01-01T17:33:55.291Z,16.90
2023-01-01T17:36:22.098Z,17.00
2023-01-01T17:38:48.840Z,16.90
2023-01-01T17:41:17.268Z,16.90
2023-01-01T17:43:46.372Z,16.90
2023-01-01T17:46:23.089Z,16.90
2023-01-01T17:48:51.643Z,16.90
2023-01-01T17:51:18.916Z,16.80
2023-01-01T17:53:46.504Z,16.80
2023-01-01T17:56:15.058Z,16.80
2023-01-01T17:58:43.606Z,16.80
2023-01-01T18:01:16.074Z,16.80
2023-01-01T18:03:42.956Z,16.80
2023-01-01T18:06:09.723Z,16.80
2023-01-01T18:08:36.390Z,16.80
2023-01-01T18:11:03.194Z,16.70
2023-01-01T18:13:32.314Z,16.70
2023-01-01T18:16:07.300Z,16.70
2023-01-01T18:18:37.868Z,16.70
2023-01-01T18:21:06.891Z,16.70
2023-01-01T18:23:39.697Z,16.70
2023-01-01T18:26:08.638Z,16.70
2023-01-01T18:28:35.423Z,16.60
2023-01-01T18:31:05.236Z,16.60
2023-01-01T18:33:33.333Z,16.60
2023-01-01T18:36:08.574Z,16.50
2023-01-01T18:38:35.804Z,16.60
2023-01-01T18:41:09.908Z,16.60
2023-01-01T18:43:36.628Z,16.60
2023-01-01T18:46:09.148Z,16.60
2023-01-01T18:48:36.439Z,16.50
2023-01-01T18:51:24.003Z,16.50
2023-01-01T18:53:55.313Z,16.50
2023-01-01T18:56:23.367Z,16.50
2023-01-01T18:58:50.930Z,16.50
2023-01-01T19:01:23.365Z,16.60
2023-01-01T19:04:00.109Z,16.70
2023-01-01T19:06:32.762Z,16.90
2023-01-01T19:09:21.534Z,17.10
2023-01-01T19:11:49.641Z,17.40
2023-01-01T19:14:24.807Z,17.80
2023-01-01T19:16:57.535Z,18.20
2023-01-01T19:19:26.547Z,18.50
2023-01-01T19:22:01.753Z,18.90
2023-01-01T19:24:31.226Z,19.20
2023-01-01T19:27:15.841Z,19.60
2023-01-01T19:29:44.992Z,19.90
2023-01-01T19:32:11.811Z,20.10
2023-01-01T19:34:39.716Z,20.30
2023-01-01T19:37:07.182Z,20.50
2023-01-01T19:39:35.188Z,20.70
2023-01-01T19:42:06.975Z,20.80
2023-01-01T19:44:35.049Z,21.00
2023-01-01T19:47:02.091Z,21.00
2023-01-01T19:49:28.774Z,21.10
2023-01-01T19:51:55.479Z,21.20
2023-01-01T19:54:22.377Z,21.30
2023-01-01T19:56:50.213Z,21.30
2023-01-01T19:59:18.006Z,21.40
2023-01-01T20:01:44.994Z,21.50
2023-01-01T20:04:12.039Z,21.40
2023-01-01T20:06:38.851Z,21.50
2023-01-01T20:09:06.081Z,21.50
2023-01-01T20:11:32.841Z,21.50
2023-01-01T20:13:59.597Z,21.50
2023-01-01T20:16:26.287Z,21.50
2023-01-01T20:18:53.023Z,21.50
2023-01-01T20:21:38.528Z,21.50
2023-01-01T20:24:05.870Z,21.50
2023-01-01T20:26:32.603Z,21.50
2023-01-01T20:29:17.777Z,21.50
2023-01-01T20:31:45.057Z,21.40
2023-01-01T20:34:12.016Z,21.40
2023-01-01T20:36:57.447Z,21.40
2023-01-01T20:39:24.218Z,21.40
2023-01-01T20:41:51.186Z,21.40
2023-01-01T20:44:18.369Z,21.30
2023-01-01T20:46:47.921Z,21.20
2023-01-01T20:49:17.139Z,21.20
2023-01-01T20:51:49.314Z,21.20
2023-01-01T20:54:15.973Z,21.10
2023-01-01T20:56:42.839Z,21.10
2023-01-01T20:59:33.474Z,21.00
2023-01-01T21:01:59.727Z,21.00
2023-01-01T21:04:26.614Z,21.00
2023-01-01T21:06:53.441Z,20.90
2023-01-01T21:09:20.306Z,20.90
2023-01-01T21:11:48.138Z,20.80
2023-01-01T21:14:14.914Z,20.80
2023-01-01T21:16:43.353Z,20.80
2023-01-01T21:19:10.725Z,20.70
2023-01-01T21:21:55.364Z,20.70
2023-01-01T21:24:24.750Z,20.70
2023-01-01T21:26:54.724Z,20.60
2023-01-01T21:29:24.283Z,20.60
2023-01-01T21:31:56.537Z,20.50
2023-01-01T21:34:42.591Z,20.50
2023-01-01T21:37:47.892Z,20.40
2023-01-01T21:40:51.734Z,20.40
2023-01-01T21:43:24.595Z,20.30
2023-01-01T21:45:51.567Z,20.30
2023-01-01T21:48:29.927Z,20.20
2023-01-01T21:50:57.431Z,20.20
2023-01-01T21:53:35.478Z,20.10
2023-01-01T21:56:23.139Z,20.10
2023-01-01T21:59:08.324Z,20.00
2023-01-01T22:01:40.743Z,20.00
2023-01-01T22:04:10.245Z,19.90
2023-01-01T22:06:58.870Z,19.90
2023-01-01T22:09:35.872Z,19.90
2023-01-01T22:12:17.794Z,19.80
2023-01-01T22:14:49.282Z,19.80
2023-01-01T22:17:35.144Z,19.70
2023-01-01T22:20:23.622Z,19.70
2023-01-01T22:22:50.438Z,19.60
2023-01-01T22:25:22.970Z,19.60
2023-01-01T22:27:50.889Z,19.50
2023-01-01T22:30:17.581Z,19.50
2023-01-01T22:32:54.035Z,19.40
2023-01-01T22:35:26.054Z,19.40
2023-01-01T22:37:56.008Z,19.40
2023-01-01T22:40:29.139Z,19.30
2023-01-01T22:43:06.224Z,19.30
2023-01-01T22:45:33.641Z,19.30
2023-01-01T22:48:06.762Z,19.20
2023-01-01T22:50:34.159Z,19.20
2023-01-01T22:53:00.833Z,19.20
2023-01-01T22:55:27.483Z,19.20
2023-01-01T22:57:54.254Z,19.10
2023-01-01T23:00:21.207Z,19.10
2023-01-01T23:02:47.942Z,19.10
2023-01-01T23:05:14.742Z,19.00
2023-01-01T23:07:42.966Z,19.00
2023-01-01T23:10:13.472Z,19.00
2023-01-01T23:12:40.522Z,19.00
2023-01-01T23:15:26.985Z,19.00
2023-01-01T23:17:53.845Z,18.90
2023-01-01T23:20:20.669Z,18.90
2023-01-01T23:22:51.087Z,18.90
2023-01-01T23:25:19.369Z,18.90
2023-01-01T23:27:47.449Z,18.80
2023-01-01T23:30:14.650Z,18.80
2023-01-01T23:32:42.305Z,18.70
2023-01-01T23:35:10.940Z,18.80
2023-01-01T23:37:38.193Z,18.70
2023-01-01T23:40:06.239Z,18.70
2023-01-01T23:42:32.950Z,18.70
2023-01-01T23:44:59.621Z,18.60
2023-01-01T23:47:26.397Z,18.60
2023-01-01T23:49:53.104Z,18.60
2023-01-01T23:52:19.867Z,18.50
2023-01-01T23:54:46.519Z,18.50
2023-01-01T23:57:14.093Z,18.50
2023-01-01T23:59:40.836Z,18.50
